Time;durP1;ratioP1;P1;durP2;ratioP2;P2;SDS_P1;SDS_P2;PMS_P1;PMS_P2;Temp;Humidity;BMP_temperature;BMP_pressure;BME280_temperature;BME280_humidity;BME280_pressure;Samples;Min_cycle;Max_cycle;Signal;HPM_P1;HPM_P2
2023/06/29 00:01:03;;;;;;;11.60;4.93;;;13.10;28.30;;;;;;5003103;28;46645;-82
2023/06/29 00:03:29;;;;;;;10.23;4.73;;;13.10;28.30;;;;;;4996049;28;46559;-81
2023/06/29 00:05:58;;;;;;;9.63;4.97;;;13.10;28.30;;;;;;5000038;28;46429;-83
2023/06/29 00:08:28;;;;;;;8.20;4.73;;;13.10;28.60;;;;;;5002748;28;46573;-83
2023/06/29 00:10:54;;;;;;;7.50;4.80;;;13.10;28.70;;;;;;4984874;28;48576;-83
2023/06/29 00:13:20;;;;;;;11.67;4.63;;;13.10;28.90;;;;;;5000124;28;46427;-78
2023/06/29 00:15:48;;;;;;;9.47;5.10;;;13.10;29.00;;;;;;4999823;28;46804;-83
2023/06/29 00:18:13;;;;;;;9.63;4.23;;;13.10;29.10;;;;;;5002412;28;46755;-83
2023/06/29 00:20:40;;;;;;;8.63;4.97;;;13.10;29.20;;;;;;5000929;28;47070;-82
2023/06/29 00:23:06;;;;;;;11.50;4.83;;;13.00;29.20;;;;;;4982445;28;47033;-80
2023/06/29 00:25:32;;;;;;;10.33;4.70;;;13.00;29.40;;;;;;5002750;28;46528;-78
2023/06/29 00:27:58;;;;;;;11.53;4.80;;;13.00;29.40;;;;;;5002378;28;46435;-83
2023/06/29 00:30:23;;;;;;;13.20;5.10;;;13.00;29.50;;;;;;5002739;28;47888;-82
2023/06/29 00:32:49;;;;;;;9.10;4.40;;;13.00;29.50;;;;;;4981416;28;46130;-82
2023/06/29 00:35:15;;;;;;;7.47;4.70;;;13.00;29.40;;;;;;5003071;28;46883;-84
2023/06/29 00:37:42;;;;;;;8.93;5.00;;;13.10;29.50;;;;;;5001821;28;46396;-83
2023/06/29 00:40:09;;;;;;;8.20;4.23;;;13.10;30.50;;;;;;5004263;28;46488;-81
2023/06/29 00:42:35;;;;;;;7.13;4.80;;;13.10;29.60;;;;;;4983512;28;46848;-83
2023/06/29 00:45:02;;;;;;;7.60;4.83;;;13.10;29.70;;;;;;4986726;28;46458;-84
2023/06/29 00:47:29;;;;;;;8.10;4.40;;;13.00;29.80;;;;;;4985211;28;46463;-82
2023/06/29 00:49:55;;;;;;;11.20;5.03;;;12.90;30.00;;;;;;4982518;28;49393;-83
2023/06/29 00:52:21;;;;;;;7.20;4.40;;;12.80;30.20;;;;;;5003627;28;46274;-85
2023/06/29 00:54:47;;;;;;;9.10;4.00;;;12.70;30.30;;;;;;5004854;28;46403;-82
2023/06/29 00:57:13;;;;;;;9.20;4.73;;;12.80;30.60;;;;;;4985875;28;46654;-85
2023/06/29 00:59:39;;;;;;;7.20;4.60;;;12.50;30.70;;;;;;5001915;28;46773;-84
2023/06/29 01:02:04;;;;;;;8.10;4.77;;;12.40;31.10;;;;;;4988083;28;47085;-86
2023/06/29 01:04:33;;;;;;;8.80;4.40;;;12.40;31.10;;;;;;5000528;28;45876;-83
2023/06/29 01:07:05;;;;;;;9.80;4.77;;;12.50;31.10;;;;;;4997523;28;46881;-81
2023/06/29 01:09:31;;;;;;;12.13;4.93;;;12.50;31.10;;;;;;4981866;28;49969;-82
2023/06/29 01:11:59;;;;;;;11.57;4.40;;;12.50;30.80;;;;;;4983646;28;46412;-82
2023/06/29 01:14:26;;;;;;;8.00;4.80;;;12.60;31.00;;;;;;4997460;28;46852;-82
2023/06/29 01:16:53;;;;;;;8.50;5.63;;;12.60;30.90;;;;;;4999073;28;46635;-82
2023/06/29 01:19:25;;;;;;;12.93;4.70;;;12.60;31.10;;;;;;4999644;28;46425;-79
2023/06/29 01:22:03;;;;;;;9.33;4.97;;;12.60;31.10;;;;;;5001941;28;45921;-81
2023/06/29 01:24:40;;;;;;;8.43;5.03;;;12.60;31.10;;;;;;4997233;28;46464;-83
2023/06/29 01:27:12;;;;;;;10.57;4.50;;;12.60;31.00;;;;;;5001668;28;46733;-83
2023/06/29 01:29:38;;;;;;;12.23;4.77;;;12.50;31.00;;;;;;5000236;28;47128;-79
2023/06/29 01:32:07;;;;;;;7.47;4.40;;;12.50;31.20;;;;;;4977948;28;46883;-84
2023/06/29 01:34:35;;;;;;;19.47;4.70;;;12.50;31.30;;;;;;4983699;28;46503;-82
2023/06/29 01:37:11;;;;;;;11.50;4.90;;;12.40;31.20;;;;;;5000888;28;46404;-82
2023/06/29 01:39:44;;;;;;;10.77;4.47;;;12.40;31.50;;;;;;4979114;28;48268;-81
2023/06/29 01:42:12;;;;;;;13.53;4.13;;;12.30;31.60;;;;;;4997927;28;45834;-81
2023/06/29 01:44:38;;;;;;;6.70;4.17;;;12.30;31.50;;;;;;4983049;28;46216;-82
2023/06/29 01:47:06;;;;;;;9.40;5.17;;;12.20;31.70;;;;;;5000674;28;45916;-82
2023/06/29 01:49:33;;;;;;;9.60;5.10;;;12.10;31.80;;;;;;4999274;28;48320;-83
2023/06/29 01:51:58;;;;;;;7.73;4.10;;;12.10;32.00;;;;;;5002602;28;46554;-82
2023/06/29 01:54:24;;;;;;;9.87;4.27;;;12.10;32.10;;;;;;5003197;28;46428;-83
2023/06/29 01:56:49;;;;;;;10.10;4.80;;;12.10;32.00;;;;;;4986639;28;46395;-81
2023/06/29 01:59:15;;;;;;;10.43;4.40;;;12.10;31.80;;;;;;4999660;28;46903;-82
2023/06/29 02:01:40;;;;;;;10.70;4.70;;;12.10;31.80;;;;;;4985959;28;46353;-81
2023/06/29 02:04:06;;;;;;;7.23;3.87;;;12.10;31.80;;;;;;5004599;28;46383;-82
2023/06/29 02:06:32;;;;;;;7.73;4.33;;;12.00;31.90;;;;;;5001244;28;46540;-81
2023/06/29 02:08:57;;;;;;;9.23;4.83;;;12.00;31.90;;;;;;5006602;28;46402;-82
2023/06/29 02:11:23;;;;;;;8.10;4.63;;;11.90;31.90;;;;;;5005764;28;46735;-81
2023/06/29 02:13:48;;;;;;;6.73;4.30;;;11.90;32.00;;;;;;5003954;28;46304;-80
2023/06/29 02:16:14;;;;;;;9.83;4.90;;;11.90;32.10;;;;;;4983675;28;45880;-85
2023/06/29 02:18:40;;;;;;;7.33;4.37;;;11.90;32.10;;;;;;4983872;28;47986;-81
2023/06/29 02:21:05;;;;;;;9.40;4.90;;;11.90;32.00;;;;;;5002438;28;46561;-83
2023/06/29 02:23:31;;;;;;;9.67;4.50;;;11.90;32.00;;;;;;5003672;28;46806;-81
2023/06/29 02:25:56;;;;;;;10.60;4.20;;;11.90;32.10;;;;;;4980868;28;46488;-82
2023/06/29 02:28:22;;;;;;;7.00;3.93;;;11.80;32.20;;;;;;4999291;28;47103;-80
2023/06/29 02:30:47;;;;;;;10.60;4.80;;;11.70;32.60;;;;;;5000029;28;46795;-82
2023/06/29 02:33:13;;;;;;;9.07;4.73;;;11.60;32.70;;;;;;5004074;28;46417;-82
2023/06/29 02:35:38;;;;;;;8.37;4.90;;;11.60;32.90;;;;;;4988023;28;46488;-84
2023/06/29 02:38:04;;;;;;;11.50;5.00;;;11.60;32.90;;;;;;5001743;28;46296;-82
2023/06/29 02:40:29;;;;;;;8.93;4.70;;;11.60;33.00;;;;;;4987592;28;46430;-86
2023/06/29 02:42:55;;;;;;;16.70;4.87;;;11.60;33.10;;;;;;4988656;28;46507;-83
2023/06/29 02:45:20;;;;;;;9.47;4.50;;;11.60;33.10;;;;;;4987567;28;45991;-83
2023/06/29 02:47:46;;;;;;;11.03;4.57;;;11.70;32.90;;;;;;5002435;28;48346;-82
2023/06/29 02:50:11;;;;;;;8.47;4.13;;;11.70;32.80;;;;;;5002818;28;46428;-82
2023/06/29 02:52:37;;;;;;;10.33;5.30;;;11.70;32.60;;;;;;5001902;28;46353;-81
2023/06/29 02:55:03;;;;;;;15.43;5.10;;;11.80;32.60;;;;;;4999063;28;46642;-81
2023/06/29 02:57:28;;;;;;;18.80;5.40;;;11.90;32.70;;;;;;5001088;28;46586;-81
2023/06/29 02:59:54;;;;;;;16.17;5.73;;;11.90;32.80;;;;;;4984640;28;46890;-82
2023/06/29 03:02:20;;;;;;;10.73;5.17;;;11.80;32.70;;;;;;5001721;28;46513;-82
2023/06/29 03:04:45;;;;;;;11.80;5.50;;;11.90;32.80;;;;;;5000532;28;46799;-82
2023/06/29 03:07:11;;;;;;;8.17;4.50;;;11.90;32.90;;;;;;5003722;28;47537;-81
2023/06/29 03:09:36;;;;;;;11.97;4.93;;;11.80;33.00;;;;;;5002172;28;46384;-82
2023/06/29 03:12:02;;;;;;;8.77;4.37;;;11.80;33.20;;;;;;5004555;28;46470;-79
2023/06/29 03:14:27;;;;;;;11.60;4.47;;;11.80;33.20;;;;;;4976535;28;46550;-82
2023/06/29 03:16:53;;;;;;;11.53;4.80;;;11.80;33.30;;;;;;5002226;28;50157;-82
2023/06/29 03:19:18;;;;;;;10.43;4.33;;;11.70;33.30;;;;;;5006240;28;46484;-82
2023/06/29 03:21:44;;;;;;;13.10;4.00;;;11.70;33.30;;;;;;5007014;28;46417;-83
2023/06/29 03:24:09;;;;;;;10.93;4.60;;;11.60;33.40;;;;;;5004072;28;46428;-80
2023/06/29 03:26:35;;;;;;;6.43;4.13;;;11.60;33.50;;;;;;5005656;28;47036;-82
2023/06/29 03:29:00;;;;;;;10.03;4.50;;;11.60;33.50;;;;;;5006350;28;46255;-83
2023/06/29 03:31:26;;;;;;;7.30;4.33;;;11.60;33.50;;;;;;5001380;28;46802;-84
2023/06/29 03:33:51;;;;;;;11.77;4.87;;;11.60;33.40;;;;;;4988583;28;46367;-82
2023/06/29 03:36:19;;;;;;;11.90;5.20;;;11.60;33.30;;;;;;5007006;28;46629;-82
2023/06/29 03:38:44;;;;;;;11.10;5.80;;;11.70;33.10;;;;;;5005082;28;46499;-81
2023/06/29 03:41:10;;;;;;;10.67;5.80;;;11.80;33.00;;;;;;5003822;28;46522;-84
2023/06/29 03:43:35;;;;;;;11.57;5.50;;;11.90;32.70;;;;;;5005411;28;46431;-82
2023/06/29 03:46:01;;;;;;;11.00;5.93;;;12.00;32.70;;;;;;5005956;28;46362;-84
2023/06/29 03:48:27;;;;;;;11.40;6.03;;;12.20;32.60;;;;;;4984928;28;46528;-83
2023/06/29 03:51:00;;;;;;;10.33;5.60;;;12.30;32.50;;;;;;4983288;28;46845;-81
2023/06/29 03:53:25;;;;;;;11.40;4.93;;;12.50;32.60;;;;;;4984309;28;47051;-82
2023/06/29 03:55:51;;;;;;;7.77;4.57;;;12.60;32.50;;;;;;5003202;28;46408;-82
2023/06/29 03:58:16;;;;;;;15.30;5.77;;;12.60;32.30;;;;;;4983174;28;46491;-81
2023/06/29 04:00:42;;;;;;;16.77;5.10;;;12.70;32.20;;;;;;4984514;28;46646;-83
2023/06/29 04:03:09;;;;;;;11.67;5.10;;;12.80;32.20;;;;;;4979359;28;46670;-82
2023/06/29 04:05:34;;;;;;;8.90;5.43;;;12.90;32.20;;;;;;5003028;28;46688;-83
2023/06/29 04:08:04;;;;;;;9.33;5.30;;;13.00;32.20;;;;;;5001233;28;45853;-83
2023/06/29 04:10:30;;;;;;;11.30;5.60;;;13.10;32.20;;;;;;4998918;28;46724;-83
2023/06/29 04:12:55;;;;;;;12.63;5.10;;;13.10;31.80;;;;;;5004493;28;46454;-81
2023/06/29 04:15:21;;;;;;;12.50;5.17;;;13.20;32.00;;;;;;5004751;28;46377;-81
2023/06/29 04:17:47;;;;;;;7.90;5.17;;;13.40;31.90;;;;;;5002035;28;46657;-82
2023/06/29 04:20:12;;;;;;;9.10;4.97;;;13.40;31.70;;;;;;5001958;28;46558;-83
2023/06/29 04:22:38;;;;;;;11.90;4.53;;;13.50;31.50;;;;;;5004691;28;46798;-84
2023/06/29 04:25:05;;;;;;;8.90;5.23;;;13.70;31.30;;;;;;5004643;28;47142;-82
2023/06/29 04:27:33;;;;;;;10.30;4.43;;;13.80;31.00;;;;;;5002238;28;45824;-85
2023/06/29 04:29:58;;;;;;;8.37;4.50;;;13.90;30.70;;;;;;5003485;28;45721;-84
2023/06/29 04:32:24;;;;;;;13.60;5.20;;;14.10;30.50;;;;;;5005411;28;47582;-82
2023/06/29 04:34:49;;;;;;;16.00;4.97;;;14.20;30.20;;;;;;5005728;28;47838;-84
2023/06/29 04:37:15;;;;;;;7.67;4.40;;;14.40;29.90;;;;;;5000885;28;46395;-83
2023/06/29 04:39:40;;;;;;;11.30;4.60;;;14.60;29.50;;;;;;5000607;28;46459;-82
2023/06/29 04:42:10;;;;;;;9.60;4.90;;;14.70;29.40;;;;;;5008156;28;46527;-81
2023/06/29 04:44:37;;;;;;;14.30;4.70;;;14.90;29.60;;;;;;4981234;28;49425;-79
2023/06/29 04:47:03;;;;;;;7.07;4.43;;;15.50;28.70;;;;;;5000716;28;46314;-82
2023/06/29 04:49:36;;;;;;;8.73;3.67;;;17.40;27.10;;;;;;5001534;28;46440;-81
2023/06/29 04:52:03;;;;;;;6.20;3.40;;;19.30;23.90;;;;;;5000304;28;46557;-82
2023/06/29 04:54:29;;;;;;;6.60;3.73;;;21.00;20.90;;;;;;4983125;28;48083;-81
2023/06/29 04:56:56;;;;;;;9.77;3.63;;;22.50;18.50;;;;;;4984025;28;47961;-82
2023/06/29 04:59:24;;;;;;;10.70;3.60;;;23.70;16.00;;;;;;5000099;28;45884;-81
2023/06/29 05:01:50;;;;;;;15.90;3.87;;;24.70;14.40;;;;;;4983093;28;46426;-81
2023/06/29 05:04:16;;;;;;;7.67;3.43;;;25.40;12.50;;;;;;5000039;28;47208;-83
2023/06/29 05:06:42;;;;;;;8.73;3.70;;;26.20;11.00;;;;;;5000629;28;46278;-83
2023/06/29 05:09:08;;;;;;;11.40;3.87;;;26.80;9.40;;;;;;5000228;28;46416;-83
2023/06/29 05:11:36;;;;;;;6.10;3.83;;;27.20;8.30;;;;;;4981032;28;46693;-83
2023/06/29 05:14:02;;;;;;;8.00;3.73;;;27.70;7.40;;;;;;5003699;28;46344;-83
2023/06/29 05:16:28;;;;;;;8.83;3.30;;;28.20;6.30;;;;;;5001078;28;46503;-81
2023/06/29 05:18:54;;;;;;;8.10;3.10;;;28.50;5.30;;;;;;5000567;28;46554;-83
2023/06/29 05:21:19;;;;;;;7.50;3.53;;;28.80;4.80;;;;;;4981546;28;46340;-85
2023/06/29 05:23:45;;;;;;;12.77;3.70;;;28.90;3.70;;;;;;5003333;28;46321;-83
2023/06/29 05:26:10;;;;;;;8.17;3.27;;;29.20;3.20;;;;;;4985122;28;46616;-82
2023/06/29 05:28:36;;;;;;;8.93;3.50;;;29.50;2.40;;;;;;4998072;28;46636;-79
2023/06/29 05:31:02;;;;;;;6.70;3.20;;;29.80;1.40;;;;;;5002893;28;46184;-82
2023/06/29 05:33:27;;;;;;;11.47;4.23;;;30.00;1.00;;;;;;5001923;28;46305;-82
2023/06/29 05:35:53;;;;;;;7.47;3.30;;;30.40;1.00;;;;;;5003181;28;46472;-83
2023/06/29 05:38:19;;;;;;;7.20;3.50;;;30.80;1.00;;;;;;4999900;28;46422;-80
2023/06/29 05:40:44;;;;;;;10.57;3.93;;;31.10;1.00;;;;;;5002201;28;46479;-81
2023/06/29 05:43:10;;;;;;;11.10;3.83;;;31.40;1.00;;;;;;4983197;28;47178;-82
2023/06/29 05:45:36;;;;;;;13.00;4.17;;;31.60;1.00;;;;;;4999880;28;46960;-81
2023/06/29 05:48:02;;;;;;;8.03;3.00;;;31.70;1.00;;;;;;4985658;28;46452;-81
2023/06/29 05:50:28;;;;;;;8.27;3.77;;;31.90;1.00;;;;;;5004642;28;46515;-79
2023/06/29 05:52:53;;;;;;;8.83;4.00;;;32.00;1.00;;;;;;4984376;28;48132;-81
2023/06/29 05:55:19;;;;;;;8.70;4.00;;;31.90;1.00;;;;;;5004110;28;46728;-86
2023/06/29 05:57:45;;;;;;;9.60;4.10;;;31.10;1.00;;;;;;4999535;28;46774;-81
2023/06/29 06:00:12;;;;;;;16.00;3.93;;;28.80;1.00;;;;;;4987612;28;46413;-79
2023/06/29 06:02:41;;;;;;;10.53;3.90;;;27.30;2.20;;;;;;5005063;28;47013;-80
2023/06/29 06:05:07;;;;;;;11.67;3.90;;;26.00;4.00;;;;;;5000521;28;46287;-81
2023/06/29 06:07:33;;;;;;;11.20;4.17;;;25.20;5.60;;;;;;5003753;28;46397;-83
2023/06/29 06:09:59;;;;;;;7.13;3.97;;;24.50;6.70;;;;;;4987125;28;45837;-86
2023/06/29 06:12:25;;;;;;;13.00;4.47;;;24.00;7.40;;;;;;5001730;28;46372;-81
2023/06/29 06:14:51;;;;;;;8.07;4.10;;;23.70;8.20;;;;;;5002600;28;46335;-82
2023/06/29 06:17:16;;;;;;;11.60;4.00;;;23.40;8.40;;;;;;4994121;28;46875;-84
2023/06/29 06:19:42;;;;;;;13.07;3.60;;;23.20;8.60;;;;;;4984190;28;46620;-85
2023/06/29 06:22:08;;;;;;;7.77;3.87;;;23.10;8.80;;;;;;4999835;28;47156;-82
2023/06/29 06:24:34;;;;;;;10.87;3.93;;;23.00;9.10;;;;;;4999313;28;45838;-82
2023/06/29 06:27:00;;;;;;;9.73;4.00;;;23.10;9.40;;;;;;4977723;28;46492;-80
2023/06/29 06:29:26;;;;;;;12.53;3.87;;;23.00;9.50;;;;;;4998412;28;45973;-80
2023/06/29 06:31:51;;;;;;;8.10;3.77;;;23.10;9.50;;;;;;5012480;28;46409;-81
2023/06/29 06:34:17;;;;;;;12.20;3.87;;;23.10;9.70;;;;;;5014451;28;45834;-82
2023/06/29 06:36:42;;;;;;;7.70;3.90;;;23.20;9.40;;;;;;5018874;28;45897;-84
2023/06/29 06:39:08;;;;;;;5.97;3.57;;;23.20;10.60;;;;;;5002444;28;46445;-82
2023/06/29 06:41:34;;;;;;;7.00;2.67;;;23.40;9.50;;;;;;4982296;28;47112;-81
2023/06/29 06:43:59;;;;;;;8.87;3.03;;;23.50;9.40;;;;;;4999890;28;46390;-81
2023/06/29 06:46:25;;;;;;;9.00;3.50;;;23.50;9.10;;;;;;5001842;28;46856;-81
2023/06/29 06:48:51;;;;;;;11.47;3.20;;;23.40;9.00;;;;;;5004606;28;46256;-80
2023/06/29 06:51:17;;;;;;;6.70;2.40;;;23.50;9.00;;;;;;5002408;28;46640;-81
2023/06/29 06:53:42;;;;;;;10.93;2.73;;;23.40;8.80;;;;;;5003185;28;46455;-79
2023/06/29 06:56:08;;;;;;;11.43;3.23;;;23.60;8.50;;;;;;5003879;28;46509;-80
2023/06/29 06:58:34;;;;;;;5.60;2.80;;;23.80;7.80;;;;;;4985089;28;46877;-81
2023/06/29 07:00:59;;;;;;;6.47;2.80;;;23.80;7.20;;;;;;5000356;28;47347;-80
2023/06/29 07:03:25;;;;;;;5.00;2.70;;;23.90;7.20;;;;;;5006669;28;46434;-81
2023/06/29 07:05:53;;;;;;;9.50;2.93;;;23.90;7.00;;;;;;5002246;28;46165;-80
2023/06/29 07:08:19;;;;;;;5.03;2.27;;;23.90;6.70;;;;;;4985401;28;47433;-83
2023/06/29 07:10:45;;;;;;;6.30;2.80;;;24.20;6.50;;;;;;5000175;28;46470;-81
2023/06/29 07:13:11;;;;;;;4.77;2.30;;;24.20;6.10;;;;;;5002594;28;46426;-79
2023/06/29 07:15:36;;;;;;;5.07;2.20;;;24.40;5.80;;;;;;4984261;28;46626;-81
2023/06/29 07:18:02;;;;;;;9.13;2.67;;;24.60;5.60;;;;;;4972885;28;46684;-80
2023/06/29 07:20:29;;;;;;;6.17;2.73;;;24.70;5.10;;;;;;4995240;28;46399;-81
2023/06/29 07:22:55;;;;;;;4.80;2.50;;;24.80;4.60;;;;;;4983681;28;46462;-83
2023/06/29 07:25:21;;;;;;;6.37;2.77;;;24.90;4.60;;;;;;5004395;28;47090;-83
2023/06/29 07:27:46;;;;;;;6.40;2.73;;;24.90;4.30;;;;;;5002678;28;46601;-81
2023/06/29 07:30:12;;;;;;;6.83;2.63;;;24.90;4.30;;;;;;5008239;28;47379;-82
2023/06/29 07:32:38;;;;;;;9.30;2.50;;;25.00;4.10;;;;;;4987268;28;46606;-80
2023/06/29 07:35:05;;;;;;;8.20;2.40;;;25.00;3.80;;;;;;4982813;28;46735;-80
2023/06/29 07:37:31;;;;;;;5.00;2.60;;;25.00;3.50;;;;;;4999284;28;46786;-79
2023/06/29 07:39:56;;;;;;;4.87;2.13;;;25.00;3.60;;;;;;5004157;28;46533;-82
2023/06/29 07:42:22;;;;;;;5.30;2.60;;;25.20;3.60;;;;;;5005798;28;46443;-82
2023/06/29 07:44:47;;;;;;;5.60;2.33;;;25.20;3.50;;;;;;5001500;28;46471;-79
2023/06/29 07:47:13;;;;;;;8.23;2.30;;;25.30;3.60;;;;;;5000161;28;46622;-79
2023/06/29 07:49:39;;;;;;;4.83;2.00;;;25.50;3.10;;;;;;5003206;28;48114;-78
2023/06/29 07:52:05;;;;;;;6.53;2.00;;;25.60;2.50;;;;;;4987363;28;46576;-80
2023/06/29 07:54:30;;;;;;;5.00;2.10;;;25.70;1.70;;;;;;5004793;28;46508;-81
2023/06/29 07:56:56;;;;;;;4.57;2.10;;;25.70;1.20;;;;;;4999800;28;46778;-82
2023/06/29 07:59:22;;;;;;;6.80;2.70;;;25.60;1.00;;;;;;4997309;28;46673;-82
2023/06/29 08:01:48;;;;;;;4.73;1.80;;;25.50;1.00;;;;;;4999203;28;45833;-82
2023/06/29 08:04:15;;;;;;;7.97;2.37;;;25.70;1.00;;;;;;4984013;28;46485;-82
2023/06/29 08:06:43;;;;;;;6.30;2.27;;;25.80;1.00;;;;;;5002869;28;46338;-85
2023/06/29 08:09:10;;;;;;;7.20;2.23;;;25.90;1.00;;;;;;4998846;28;46578;-82
2023/06/29 08:11:37;;;;;;;6.30;2.30;;;25.90;1.00;;;;;;5002435;28;46420;-81
2023/06/29 08:14:02;;;;;;;7.63;2.40;;;26.10;1.00;;;;;;4986269;28;46853;-82
2023/06/29 08:16:28;;;;;;;6.93;1.90;;;26.00;1.00;;;;;;4984841;28;46385;-82
2023/06/29 08:18:53;;;;;;;6.40;2.47;;;25.70;1.00;;;;;;5003875;28;47084;-81
2023/06/29 08:21:19;;;;;;;7.23;1.83;;;25.70;1.00;;;;;;4986479;28;45804;-79
2023/06/29 08:23:46;;;;;;;5.00;2.13;;;25.60;1.00;;;;;;4999377;28;46383;-80
2023/06/29 08:26:12;;;;;;;12.63;2.57;;;25.70;1.00;;;;;;5003100;28;45910;-80
2023/06/29 08:28:37;;;;;;;6.30;2.70;;;25.70;1.00;;;;;;4974301;28;47967;-80
2023/06/29 08:31:03;;;;;;;4.87;1.80;;;25.70;1.00;;;;;;4998712;28;46451;-80
2023/06/29 08:33:28;;;;;;;5.27;2.30;;;25.70;1.00;;;;;;4984391;28;46441;-80
2023/06/29 08:35:54;;;;;;;4.93;2.10;;;25.80;1.00;;;;;;4992575;28;46729;-80
2023/06/29 08:38:19;;;;;;;4.63;2.00;;;26.00;1.00;;;;;;5001595;28;47080;-80
2023/06/29 08:40:49;;;;;;;4.30;2.07;;;26.00;1.00;;;;;;5002152;28;45890;-82
2023/06/29 08:43:18;;;;;;;6.30;1.90;;;26.00;1.00;;;;;;4983870;28;46404;-83
2023/06/29 08:45:45;;;;;;;3.60;1.63;;;25.80;1.00;;;;;;5000067;28;46487;-78
2023/06/29 08:48:13;;;;;;;7.93;2.03;;;26.10;1.00;;;;;;4978182;28;47977;-82
2023/06/29 08:50:43;;;;;;;5.63;2.20;;;26.00;1.00;;;;;;5001228;28;45844;-79
2023/06/29 08:53:09;;;;;;;9.70;2.00;;;26.00;1.00;;;;;;5000248;28;46471;-79
2023/06/29 08:55:36;;;;;;;9.50;2.00;;;26.10;1.00;;;;;;5000815;28;46613;-79
2023/06/29 08:58:02;;;;;;;6.70;2.43;;;26.10;1.00;;;;;;5002431;28;46431;-81
2023/06/29 09:00:28;;;;;;;7.37;2.50;;;26.20;1.00;;;;;;4997164;28;46888;-80
2023/06/29 09:02:54;;;;;;;9.97;2.33;;;26.30;1.00;;;;;;4984386;28;46522;-86
2023/06/29 09:05:21;;;;;;;5.57;2.20;;;26.40;1.00;;;;;;5004979;28;46444;-80
2023/06/29 09:07:47;;;;;;;5.40;2.37;;;26.60;1.00;;;;;;5005674;28;46638;-82
2023/06/29 09:10:12;;;;;;;5.30;2.07;;;26.30;1.00;;;;;;5000827;28;46411;-81
2023/06/29 09:12:38;;;;;;;5.90;1.87;;;26.20;1.00;;;;;;5004530;28;45749;-83
2023/06/29 09:15:10;;;;;;;7.20;2.33;;;26.30;1.00;;;;;;5002404;28;46405;-83
2023/06/29 09:17:36;;;;;;;4.37;1.90;;;26.50;1.00;;;;;;4990809;28;48479;-80
2023/06/29 09:20:13;;;;;;;4.00;1.80;;;26.80;1.00;;;;;;5001180;28;46426;-82
2023/06/29 09:22:40;;;;;;;6.07;2.60;;;27.00;1.00;;;;;;5003605;28;45776;-81
2023/06/29 09:25:07;;;;;;;6.80;2.30;;;26.90;1.00;;;;;;5002308;28;46363;-79
2023/06/29 09:27:35;;;;;;;4.33;2.20;;;26.40;1.00;;;;;;5000865;28;47163;-78
2023/06/29 09:30:03;;;;;;;5.37;2.10;;;26.20;1.00;;;;;;5001862;28;45764;-81
2023/06/29 09:32:29;;;;;;;5.13;2.07;;;26.20;1.00;;;;;;4983688;28;47234;-82
2023/06/29 09:34:55;;;;;;;6.37;2.00;;;26.50;1.00;;;;;;4998227;28;46921;-80
2023/06/29 09:37:20;;;;;;;4.80;1.90;;;26.60;1.00;;;;;;5001497;28;46666;-79
2023/06/29 09:39:50;;;;;;;5.97;2.10;;;27.00;1.00;;;;;;5001388;28;46486;-81
2023/06/29 09:42:16;;;;;;;8.77;2.47;;;27.00;1.00;;;;;;4983168;28;46341;-83
2023/06/29 09:44:44;;;;;;;9.53;2.50;;;27.30;1.00;;;;;;4982111;28;46397;-81
2023/06/29 09:47:11;;;;;;;7.27;2.77;;;27.40;1.00;;;;;;4999280;28;46730;-80
2023/06/29 09:49:49;;;;;;;10.20;2.73;;;27.40;1.00;;;;;;5001533;28;46542;-80
2023/06/29 09:52:16;;;;;;;10.63;2.13;;;27.30;1.00;;;;;;4979625;28;46403;-81
2023/06/29 09:54:42;;;;;;;4.73;2.30;;;27.50;1.00;;;;;;4998497;28;46399;-81
2023/06/29 09:57:10;;;;;;;5.80;2.23;;;27.30;1.00;;;;;;4982979;28;46452;-80
2023/06/29 09:59:45;;;;;;;8.23;2.40;;;27.10;1.00;;;;;;4995943;28;46482;-80
2023/06/29 10:02:14;;;;;;;7.32;2.33;;;26.90;1.00;;;;;;4977522;28;46574;-81
2023/06/29 10:04:41;;;;;;;5.43;2.07;;;27.00;1.00;;;;;;4983596;28;46416;-79
2023/06/29 10:07:18;;;;;;;5.07;2.43;;;27.10;1.00;;;;;;4981764;28;47200;-79
2023/06/29 10:09:49;;;;;;;5.07;1.90;;;27.10;1.00;;;;;;4974564;28;46475;-78
2023/06/29 10:12:17;;;;;;;4.83;2.53;;;26.90;1.00;;;;;;5005363;28;46977;-80
2023/06/29 10:14:45;;;;;;;10.33;2.50;;;26.70;1.00;;;;;;4998140;28;46003;-79
2023/06/29 10:17:23;;;;;;;5.03;2.17;;;27.00;1.00;;;;;;5003539;28;47000;-80
2023/06/29 10:19:50;;;;;;;5.30;2.20;;;27.20;1.00;;;;;;4983424;28;46460;-77
2023/06/29 10:22:17;;;;;;;8.93;2.30;;;27.10;1.00;;;;;;4987451;28;45837;-78
2023/06/29 10:24:53;;;;;;;3.73;2.00;;;27.00;1.00;;;;;;4998175;28;46759;-84
2023/06/29 10:27:20;;;;;;;5.53;2.00;;;26.90;1.00;;;;;;4984993;28;48120;-83
2023/06/29 10:29:48;;;;;;;6.83;2.30;;;26.90;1.00;;;;;;4977745;28;46569;-81
2023/06/29 10:32:33;;;;;;;5.20;2.03;;;27.30;1.00;;;;;;5001407;28;46572;-83
2023/06/29 10:35:10;;;;;;;4.67;2.30;;;27.20;1.00;;;;;;5002318;28;46487;-84
2023/06/29 10:37:43;;;;;;;4.37;1.93;;;27.00;1.00;;;;;;5004395;28;46828;-84
2023/06/29 10:40:13;;;;;;;5.70;2.30;;;27.10;1.00;;;;;;5004643;28;46485;-81
2023/06/29 10:42:40;;;;;;;4.80;2.00;;;27.20;1.00;;;;;;5002157;28;46387;-83
2023/06/29 10:45:26;;;;;;;8.90;2.27;;;26.80;1.00;;;;;;5000019;28;46567;-82
2023/06/29 10:47:57;;;;;;;6.17;2.00;;;26.80;1.00;;;;;;4982946;28;48108;-81
2023/06/29 10:50:28;;;;;;;4.97;2.50;;;27.10;1.00;;;;;;5003361;28;46565;-81
2023/06/29 10:52:58;;;;;;;5.87;2.20;;;27.20;1.00;;;;;;4982267;28;46769;-80
2023/06/29 10:55:26;;;;;;;6.37;2.30;;;27.20;1.00;;;;;;5003321;28;46445;-82
2023/06/29 10:57:51;;;;;;;4.33;1.70;;;27.40;1.00;;;;;;4984614;28;47113;-81
2023/06/29 11:00:17;;;;;;;5.43;1.80;;;27.60;1.00;;;;;;5004508;28;46373;-82
2023/06/29 11:02:46;;;;;;;6.70;2.30;;;27.80;1.00;;;;;;4996838;28;46732;-82
2023/06/29 11:05:16;;;;;;;5.80;2.10;;;28.10;1.00;;;;;;5003703;28;46514;-82
2023/06/29 11:07:47;;;;;;;4.93;2.20;;;28.10;1.00;;;;;;5002148;28;46491;-83
2023/06/29 11:10:12;;;;;;;6.07;2.07;;;28.00;1.00;;;;;;4996607;28;46399;-83
2023/06/29 11:12:39;;;;;;;4.95;2.13;;;28.00;1.00;;;;;;4980643;28;46470;-81
2023/06/29 11:15:15;;;;;;;7.47;2.00;;;27.90;1.00;;;;;;4999180;28;46844;-78
2023/06/29 11:17:43;;;;;;;4.10;1.77;;;27.90;1.00;;;;;;4992169;28;46483;-79
2023/06/29 11:20:17;;;;;;;6.43;2.37;;;27.80;1.00;;;;;;4987839;28;46468;-81
2023/06/29 11:22:43;;;;;;;10.93;2.37;;;27.80;1.00;;;;;;5003906;28;46501;-82
2023/06/29 11:25:16;;;;;;;5.77;1.97;;;28.30;1.00;;;;;;4976267;28;46505;-82
2023/06/29 11:27:45;;;;;;;6.40;2.00;;;28.40;1.00;;;;;;5000029;28;49151;-82
2023/06/29 11:30:12;;;;;;;8.43;1.90;;;28.50;1.00;;;;;;5005215;28;46471;-83
2023/06/29 11:32:38;;;;;;;7.60;2.13;;;28.60;1.00;;;;;;5004926;28;45832;-83
2023/06/29 11:35:06;;;;;;;4.63;2.03;;;28.70;1.00;;;;;;4995003;28;46234;-81
2023/06/29 11:37:34;;;;;;;4.13;1.80;;;28.80;1.00;;;;;;5002801;28;47651;-80
2023/06/29 11:40:07;;;;;;;5.70;2.20;;;29.10;1.00;;;;;;5002371;28;46413;-82
2023/06/29 11:42:33;;;;;;;6.03;2.70;;;29.20;1.00;;;;;;4987167;28;46488;-84
2023/06/29 11:45:04;;;;;;;6.17;1.90;;;29.50;1.00;;;;;;4984927;28;46562;-83
2023/06/29 11:47:30;;;;;;;7.20;2.20;;;30.10;1.00;;;;;;5001293;28;46136;-81
2023/06/29 11:49:59;;;;;;;4.83;1.67;;;30.30;1.00;;;;;;5005933;28;46516;-83
2023/06/29 11:52:32;;;;;;;3.80;1.63;;;30.20;1.00;;;;;;4999098;28;46529;-80
2023/06/29 11:55:06;;;;;;;4.33;1.70;;;30.20;1.00;;;;;;4998619;28;46443;-82
2023/06/29 11:57:36;;;;;;;4.93;2.00;;;30.30;1.00;;;;;;4998556;28;47477;-83
2023/06/29 12:00:07;;;;;;;6.40;1.73;;;30.40;1.00;;;;;;5003782;28;46935;-81
2023/06/29 12:02:33;;;;;;;3.97;1.73;;;30.40;1.00;;;;;;5008548;28;46537;-81
2023/06/29 12:05:04;;;;;;;4.40;2.00;;;30.40;1.00;;;;;;5005752;28;46014;-81
2023/06/29 12:07:42;;;;;;;7.73;1.70;;;30.60;1.00;;;;;;5004522;28;46608;-79
2023/06/29 12:10:21;;;;;;;4.20;2.10;;;30.60;1.00;;;;;;5001456;28;46483;-80
2023/06/29 12:12:55;;;;;;;4.30;1.87;;;30.80;1.00;;;;;;4999534;28;46812;-79
2023/06/29 12:15:28;;;;;;;4.43;1.77;;;30.60;1.00;;;;;;4982229;28;46522;-78
2023/06/29 12:18:07;;;;;;;7.40;2.10;;;30.70;1.00;;;;;;4981295;28;48123;-81
2023/06/29 12:20:40;;;;;;;5.90;2.17;;;30.60;1.00;;;;;;4982819;28;46417;-80
2023/06/29 12:23:07;;;;;;;5.17;2.13;;;30.30;1.00;;;;;;5000446;28;45845;-80
2023/06/29 12:25:50;;;;;;;5.80;2.10;;;30.20;1.00;;;;;;5000389;28;46656;-80
2023/06/29 12:28:16;;;;;;;5.40;2.20;;;30.30;1.00;;;;;;5000395;28;47417;-80
2023/06/29 12:30:42;;;;;;;4.03;1.67;;;29.90;1.00;;;;;;4998699;28;46254;-81
2023/06/29 12:33:09;;;;;;;8.47;2.37;;;29.80;1.00;;;;;;4999291;28;46422;-79
2023/06/29 12:35:35;;;;;;;6.17;2.20;;;29.80;1.00;;;;;;5002996;28;46912;-82
2023/06/29 12:38:01;;;;;;;5.27;1.97;;;29.70;1.00;;;;;;5002576;28;46146;-79
2023/06/29 12:40:27;;;;;;;5.20;1.80;;;29.70;1.00;;;;;;4986179;28;46898;-78
2023/06/29 12:42:54;;;;;;;4.07;1.80;;;29.70;1.00;;;;;;5000075;28;46536;-83
2023/06/29 12:45:19;;;;;;;6.43;2.23;;;29.80;1.00;;;;;;5003324;28;46431;-83
2023/06/29 12:47:45;;;;;;;10.57;2.07;;;29.90;1.00;;;;;;4983909;28;48797;-83
2023/06/29 12:50:10;;;;;;;5.10;2.07;;;29.70;1.00;;;;;;4984014;28;46112;-82